createdAt,value
2018-01-25T00:00:36.109Z,69.97
2018-01-25T00:03:03.575Z,70.05
2018-01-25T00:05:30.961Z,70.81
2018-01-25T00:07:58.368Z,70.39
2018-01-25T00:10:26.183Z,71.15
2018-01-25T00:12:54.252Z,70.75
2018-01-25T00:15:21.736Z,70.32
2018-01-25T00:17:49.144Z,69.88
2018-01-25T00:20:16.544Z,69.78
2018-01-25T00:22:44.015Z,70.46
2018-01-25T00:25:11.416Z,70.01
2018-01-25T00:27:38.899Z,69.42
2018-01-25T00:30:06.298Z,70.07
2018-01-25T00:32:33.687Z,70.12
2018-01-25T00:35:01.109Z,69.54
2018-01-25T00:37:28.500Z,69.32
2018-01-25T00:39:55.928Z,69.66
2018-01-25T00:42:23.317Z,69.17
2018-01-25T00:44:50.728Z,69.70
2018-01-25T00:47:18.196Z,69.76
2018-01-25T00:49:45.597Z,69.42
2018-01-25T00:52:12.992Z,69.84
2018-01-25T00:54:40.407Z,68.46
2018-01-25T00:57:08.332Z,68.48
2018-01-25T00:59:35.732Z,68.39
2018-01-25T01:02:03.137Z,67.97
2018-01-25T01:04:30.546Z,67.05
2018-01-25T01:06:57.949Z,66.79
2018-01-25T01:09:25.359Z,66.73
2018-01-25T01:11:52.744Z,65.90
2018-01-25T01:14:20.153Z,65.53
2018-01-25T01:16:48.385Z,66.77
2018-01-25T01:19:15.795Z,65.74
2018-01-25T01:21:43.205Z,65.49
2018-01-25T01:24:10.617Z,65.80
2018-01-25T01:26:38.018Z,65.55
2018-01-25T01:29:05.424Z,65.73
2018-01-25T01:31:32.816Z,64.42
2018-01-25T01:34:00.223Z,64.88
2018-01-25T01:36:27.627Z,65.06
2018-01-25T01:38:55.020Z,65.36
2018-01-25T01:41:22.433Z,65.67
2018-01-25T01:43:49.835Z,66.27
2018-01-25T01:46:17.252Z,65.66
2018-01-25T01:48:44.632Z,65.92
2018-01-25T01:51:12.036Z,65.41
2018-01-25T01:53:39.442Z,64.99
2018-01-25T01:56:06.887Z,64.92
2018-01-25T01:58:34.284Z,65.70
2018-01-25T02:01:01.685Z,65.75
2018-01-25T02:03:29.163Z,66.22
2018-01-25T02:05:56.708Z,66.07
2018-01-25T02:08:24.104Z,66.14
2018-01-25T02:10:51.518Z,65.77
2018-01-25T02:13:18.971Z,66.10
2018-01-25T02:15:46.368Z,66.15
2018-01-25T02:18:13.770Z,66.09
2018-01-25T02:20:41.183Z,66.23
2018-01-25T02:23:08.582Z,65.89
2018-01-25T02:25:35.980Z,66.63
2018-01-25T02:28:03.381Z,66.18
2018-01-25T02:30:30.829Z,66.02
2018-01-25T02:32:58.236Z,66.43
2018-01-25T02:35:25.655Z,66.13
2018-01-25T02:37:53.054Z,65.87
2018-01-25T02:40:20.464Z,65.58
2018-01-25T02:42:48.076Z,65.80
2018-01-25T02:45:15.485Z,65.48
2018-01-25T02:47:42.881Z,65.31
2018-01-25T02:50:10.279Z,64.84
2018-01-25T02:52:37.687Z,64.72
2018-01-25T02:55:05.093Z,64.60
2018-01-25T02:57:32.497Z,65.19
2018-01-25T03:00:00.416Z,65.96
2018-01-25T03:02:27.817Z,65.26
2018-01-25T03:04:55.260Z,65.40
2018-01-25T03:07:22.896Z,65.37
2018-01-25T03:09:50.304Z,65.59
2018-01-25T03:12:17.714Z,65.77
2018-01-25T03:14:45.116Z,66.53
2018-01-25T03:17:12.806Z,66.39
2018-01-25T03:19:40.202Z,67.00
2018-01-25T03:22:07.627Z,67.38
2018-01-25T03:24:35.017Z,67.50
2018-01-25T03:27:02.604Z,67.68
2018-01-25T03:29:30.015Z,67.44
2018-01-25T03:31:57.416Z,66.94
2018-01-25T03:34:24.826Z,67.22
2018-01-25T03:36:52.259Z,67.68
2018-01-25T03:39:19.654Z,66.64
2018-01-25T03:41:47.069Z,66.77
2018-01-25T03:44:14.477Z,66.99
2018-01-25T03:46:42.041Z,67.00
2018-01-25T03:49:10.036Z,66.88
2018-01-25T03:51:37.538Z,67.22
2018-01-25T03:54:04.941Z,67.00
2018-01-25T03:59:06.083Z,66.82
2018-01-25T04:01:33.500Z,66.36
2018-01-25T04:04:00.898Z,65.84
2018-01-25T04:06:28.296Z,65.88
2018-01-25T04:08:56.444Z,65.55
2018-01-25T04:11:23.854Z,65.12
2018-01-25T04:13:51.249Z,65.31
2018-01-25T04:16:18.663Z,65.00
2018-01-25T04:18:46.064Z,64.89
2018-01-25T04:21:15.548Z,65.05
2018-01-25T04:23:42.943Z,64.79
2018-01-25T04:26:10.351Z,65.54
2018-01-25T04:28:37.906Z,65.42
2018-01-25T04:31:05.314Z,65.27
2018-01-25T04:33:33.614Z,65.56
2018-01-25T04:36:01.717Z,65.63
2018-01-25T04:38:29.156Z,65.11
2018-01-25T04:40:56.629Z,65.25
2018-01-25T04:43:24.034Z,65.64
2018-01-25T04:45:51.432Z,65.76
2018-01-25T04:48:18.884Z,65.91
2018-01-25T04:50:46.871Z,65.30
2018-01-25T04:53:14.276Z,65.32
2018-01-25T04:55:41.688Z,64.99
2018-01-25T04:58:09.124Z,65.04
2018-01-25T05:00:36.516Z,65.00
2018-01-25T05:03:03.928Z,64.68
2018-01-25T05:05:31.324Z,63.72
2018-01-25T05:07:58.734Z,64.53
2018-01-25T05:10:26.142Z,63.97
2018-01-25T05:12:53.539Z,63.35
2018-01-25T05:15:20.946Z,63.63
2018-01-25T05:17:51.852Z,63.61
2018-01-25T05:20:19.311Z,63.52
2018-01-25T05:22:46.699Z,63.95
2018-01-25T05:25:14.216Z,63.18
2018-01-25T05:27:41.612Z,63.62
2018-01-25T05:30:09.036Z,63.65
2018-01-25T05:32:36.424Z,63.15
2018-01-25T05:35:03.841Z,63.07
2018-01-25T05:37:31.314Z,63.54
2018-01-25T05:39:58.890Z,62.79
2018-01-25T05:42:26.284Z,62.74
2018-01-25T05:44:53.704Z,62.27
2018-01-25T05:47:21.104Z,62.47
2018-01-25T05:49:48.520Z,62.92
2018-01-25T05:52:15.917Z,62.93
2018-01-25T05:54:43.327Z,63.30
2018-01-25T05:57:10.730Z,63.17
2018-01-25T05:59:38.225Z,62.29
2018-01-25T06:02:05.628Z,62.94
2018-01-25T06:04:33.548Z,63.94
2018-01-25T06:07:00.952Z,63.98
2018-01-25T06:09:28.356Z,64.31
2018-01-25T06:11:55.858Z,63.39
2018-01-25T06:14:23.264Z,63.50
2018-01-25T06:16:50.666Z,63.84
2018-01-25T06:19:18.072Z,64.50
2018-01-25T06:21:45.472Z,63.80
2018-01-25T06:24:12.911Z,64.26
2018-01-25T06:26:40.307Z,65.28
2018-01-25T06:29:07.696Z,65.79
2018-01-25T06:31:35.100Z,65.35
2018-01-25T06:34:02.723Z,66.65
2018-01-25T06:36:30.129Z,67.86
2018-01-25T06:38:57.527Z,67.01
2018-01-25T06:41:24.932Z,67.73
2018-01-25T06:43:52.895Z,67.32
2018-01-25T06:46:20.326Z,67.27
2018-01-25T06:48:47.708Z,66.92
2018-01-25T06:51:15.120Z,68.50
2018-01-25T06:53:42.833Z,67.55
2018-01-25T06:56:10.269Z,67.42
2018-01-25T06:58:37.727Z,68.71
2018-01-25T07:01:05.088Z,69.39
2018-01-25T07:03:32.562Z,67.47
2018-01-25T07:06:00.120Z,68.20
2018-01-25T07:08:27.569Z,68.40
2018-01-25T07:10:55.427Z,68.41
2018-01-25T07:13:22.815Z,68.34
2018-01-25T07:15:50.387Z,67.94
2018-01-25T07:18:17.843Z,69.27
2018-01-25T07:20:45.253Z,68.72
2018-01-25T07:23:12.892Z,66.94
2018-01-25T07:25:40.304Z,67.80
2018-01-25T07:28:08.344Z,67.65
2018-01-25T07:30:35.753Z,66.99
2018-01-25T07:33:03.156Z,68.17
2018-01-25T07:35:31.292Z,67.75
2018-01-25T07:37:58.679Z,67.34
2018-01-25T07:40:26.079Z,67.78
2018-01-25T07:42:53.488Z,67.60
2018-01-25T07:45:20.879Z,67.89
2018-01-25T07:47:48.285Z,67.70
2018-01-25T07:50:15.693Z,67.58
2018-01-25T07:52:43.100Z,66.54
2018-01-25T07:55:10.504Z,67.23
2018-01-25T07:57:43.396Z,66.90
2018-01-25T08:00:10.817Z,67.74
2018-01-25T08:02:38.229Z,67.48
2018-01-25T08:05:05.625Z,67.20
2018-01-25T08:07:33.037Z,66.91
2018-01-25T08:10:00.439Z,67.16
2018-01-25T08:12:27.856Z,66.96
2018-01-25T08:14:55.265Z,66.80
2018-01-25T08:17:23.642Z,67.01
2018-01-25T08:19:51.033Z,67.68
2018-01-25T08:22:18.445Z,66.75
2018-01-25T08:24:45.850Z,67.23
2018-01-25T08:27:13.257Z,66.68
2018-01-25T08:29:40.665Z,66.37
2018-01-25T08:32:08.068Z,66.93
2018-01-25T08:34:35.471Z,67.32
2018-01-25T08:37:02.902Z,66.94
2018-01-25T08:39:30.300Z,67.53
2018-01-25T08:41:57.708Z,66.63
2018-01-25T08:44:25.114Z,66.52
2018-01-25T08:46:52.546Z,65.13
2018-01-25T08:49:19.963Z,65.13
2018-01-25T08:51:47.366Z,64.83
2018-01-25T08:54:14.765Z,65.02
2018-01-25T08:56:42.168Z,65.82
2018-01-25T08:59:09.631Z,64.83
2018-01-25T09:01:36.977Z,64.40
2018-01-25T09:04:04.390Z,63.96
2018-01-25T09:06:31.843Z,63.83
2018-01-25T09:08:59.208Z,64.06
2018-01-25T09:11:26.625Z,64.29
2018-01-25T09:13:55.122Z,63.63
2018-01-25T09:16:22.504Z,63.97
2018-01-25T09:18:49.961Z,64.08
2018-01-25T09:21:17.445Z,62.48
2018-01-25T09:23:44.830Z,62.19
2018-01-25T09:26:12.232Z,62.54
2018-01-25T09:28:39.640Z,61.96
2018-01-25T09:31:07.100Z,61.31
2018-01-25T09:33:34.696Z,61.42
2018-01-25T09:36:02.108Z,61.50
2018-01-25T09:38:29.505Z,60.45
2018-01-25T09:40:57.030Z,60.41
2018-01-25T09:43:24.484Z,60.50
2018-01-25T09:45:51.886Z,59.81
2018-01-25T09:48:19.398Z,60.35
2018-01-25T09:50:46.789Z,59.03
2018-01-25T09:53:14.209Z,58.71
2018-01-25T09:55:41.597Z,57.81
2018-01-25T09:58:09.006Z,57.73
2018-01-25T10:00:36.538Z,56.79
2018-01-25T10:03:03.803Z,57.76
2018-01-25T10:05:31.201Z,56.08
2018-01-25T10:07:58.616Z,57.64
2018-01-25T10:10:26.016Z,55.59
2018-01-25T10:12:53.408Z,54.75
2018-01-25T10:15:20.883Z,55.19
2018-01-25T10:17:48.272Z,55.43
2018-01-25T10:20:15.679Z,54.40
2018-01-25T10:22:43.072Z,54.40
2018-01-25T10:25:10.510Z,53.66
2018-01-25T10:27:37.942Z,53.62
2018-01-25T10:30:05.824Z,53.93
2018-01-25T10:32:33.268Z,54.02
2018-01-25T10:35:00.669Z,54.42
2018-01-25T10:37:28.068Z,54.00
2018-01-25T10:39:55.727Z,52.72
2018-01-25T10:42:23.123Z,54.19
2018-01-25T10:44:50.517Z,53.93
2018-01-25T10:47:17.920Z,53.77
2018-01-25T10:49:45.564Z,54.05
2018-01-25T10:52:12.963Z,54.35
2018-01-25T10:54:40.351Z,52.83
2018-01-25T10:57:07.812Z,52.90
2018-01-25T10:59:35.211Z,53.10
2018-01-25T11:02:17.307Z,51.65
2018-01-25T11:04:44.700Z,53.10
2018-01-25T11:07:12.104Z,52.48
2018-01-25T11:09:39.557Z,53.81
2018-01-25T11:12:06.962Z,53.62
2018-01-25T11:14:34.430Z,52.85
2018-01-25T11:17:01.828Z,52.55
2018-01-25T11:19:29.227Z,53.49
2018-01-25T11:21:56.628Z,53.28
2018-01-25T11:24:24.148Z,52.71
2018-01-25T11:26:51.548Z,51.92
2018-01-25T11:29:18.943Z,52.84
2018-01-25T11:31:46.343Z,50.94
2018-01-25T11:34:13.739Z,51.13
2018-01-25T11:36:41.140Z,51.85
2018-01-25T11:39:08.536Z,52.42
2018-01-25T11:41:35.944Z,50.90
2018-01-25T11:44:03.384Z,52.71
2018-01-25T11:46:30.794Z,51.73
2018-01-25T11:48:58.197Z,52.90
2018-01-25T11:51:25.607Z,51.17
2018-01-25T11:53:52.996Z,49.68
2018-01-25T11:56:20.483Z,50.31
2018-01-25T11:58:47.900Z,51.90
2018-01-25T12:01:15.296Z,49.35
2018-01-25T12:06:16.403Z,48.26
2018-01-25T12:08:43.764Z,48.94
2018-01-25T12:11:11.168Z,48.88
2018-01-25T12:13:38.572Z,49.58
2018-01-25T12:16:06.032Z,50.10
2018-01-25T12:18:33.454Z,50.16
2018-01-25T12:21:00.965Z,53.56
2018-01-25T12:23:28.444Z,49.52
2018-01-25T12:25:55.835Z,50.25
2018-01-25T12:28:23.247Z,51.87
2018-01-25T12:30:50.646Z,50.78
2018-01-25T12:33:18.049Z,49.46
2018-01-25T12:35:45.441Z,48.22
2018-01-25T12:38:12.851Z,48.89
2018-01-25T12:40:40.241Z,50.33
2018-01-25T12:43:07.635Z,49.73
2018-01-25T12:45:35.122Z,49.15
2018-01-25T12:48:02.526Z,49.50
2018-01-25T12:50:29.928Z,50.51
2018-01-25T12:52:57.339Z,50.54
2018-01-25T12:55:24.873Z,50.86
2018-01-25T12:57:52.258Z,51.68
2018-01-25T13:00:19.651Z,51.23
2018-01-25T13:02:47.064Z,50.68
2018-01-25T13:05:14.464Z,50.87
2018-01-25T13:07:41.868Z,51.72
2018-01-25T13:10:09.261Z,50.87
2018-01-25T13:12:36.665Z,51.27
2018-01-25T13:15:04.065Z,51.52
2018-01-25T13:17:31.649Z,53.24
2018-01-25T13:19:59.042Z,52.29
2018-01-25T13:22:26.428Z,50.96
2018-01-25T13:24:53.846Z,52.68
2018-01-25T13:27:21.230Z,51.53
2018-01-25T13:29:49.160Z,52.01
2018-01-25T13:32:19.377Z,54.01
2018-01-25T13:34:46.800Z,54.61
2018-01-25T13:37:14.192Z,54.25
2018-01-25T13:39:41.602Z,53.34
2018-01-25T13:42:08.990Z,54.52
2018-01-25T13:44:36.391Z,54.96
2018-01-25T13:47:03.813Z,52.73
2018-01-25T13:49:31.227Z,54.20
2018-01-25T13:51:58.625Z,53.36
2018-01-25T13:54:26.021Z,52.87
2018-01-25T13:56:53.484Z,54.31
2018-01-25T13:59:20.904Z,53.46
2018-01-25T14:01:48.296Z,55.13
2018-01-25T14:04:16.072Z,54.61
2018-01-25T14:06:44.064Z,56.47
2018-01-25T14:09:11.275Z,56.45
2018-01-25T14:11:38.665Z,55.85
2018-01-25T14:14:06.069Z,55.57
2018-01-25T14:16:33.467Z,54.47
2018-01-25T14:19:00.881Z,55.02
2018-01-25T14:21:28.383Z,54.54
2018-01-25T14:23:55.781Z,54.91
2018-01-25T14:26:23.238Z,54.32
2018-01-25T14:28:50.694Z,55.29
2018-01-25T14:31:18.095Z,54.54
2018-01-25T14:33:45.489Z,54.59
2018-01-25T14:36:12.958Z,55.95
2018-01-25T14:38:40.359Z,56.29
2018-01-25T14:41:07.804Z,56.45
2018-01-25T14:43:35.219Z,55.82
2018-01-25T14:46:02.629Z,56.06
2018-01-25T14:48:30.016Z,55.83
2018-01-25T14:50:57.416Z,56.81
2018-01-25T14:53:24.816Z,55.92
2018-01-25T14:55:52.224Z,56.30
2018-01-25T14:58:19.619Z,57.11
2018-01-25T15:00:47.024Z,55.95
2018-01-25T15:03:14.420Z,56.96
2018-01-25T15:05:41.828Z,56.98
2018-01-25T15:08:09.216Z,57.49
2018-01-25T15:10:36.691Z,58.35
2018-01-25T15:13:04.086Z,58.46
2018-01-25T15:15:31.484Z,59.21
2018-01-25T15:17:58.887Z,59.00
2018-01-25T15:20:26.275Z,59.05
2018-01-25T15:22:53.680Z,59.19
2018-01-25T15:25:26.668Z,59.74
2018-01-25T15:27:54.148Z,60.33
2018-01-25T15:30:21.592Z,59.79
2018-01-25T15:32:49.056Z,60.63
2018-01-25T15:35:16.460Z,60.31
2018-01-25T15:37:44.780Z,59.57
2018-01-25T15:40:12.176Z,60.70
2018-01-25T15:42:39.844Z,61.04
2018-01-25T15:45:07.221Z,60.64
2018-01-25T15:47:34.658Z,61.21
2018-01-25T15:50:02.021Z,61.45
2018-01-25T15:52:29.424Z,61.19
2018-01-25T15:54:56.828Z,61.63
2018-01-25T15:57:24.234Z,62.03
2018-01-25T15:59:51.628Z,62.25
2018-01-25T16:02:19.097Z,62.62
2018-01-25T16:04:46.506Z,63.50
2018-01-25T16:07:13.906Z,63.45
2018-01-25T16:09:41.323Z,63.67
2018-01-25T16:12:08.792Z,63.79
2018-01-25T16:14:36.200Z,63.79
2018-01-25T16:17:03.604Z,63.14
2018-01-25T16:19:31.019Z,63.68
2018-01-25T16:21:58.461Z,63.41
2018-01-25T16:24:25.865Z,63.83
2018-01-25T16:26:53.300Z,63.82
2018-01-25T16:29:20.704Z,63.86
2018-01-25T16:31:48.104Z,63.88
2018-01-25T16:34:15.505Z,63.82
2018-01-25T16:36:42.901Z,63.19
2018-01-25T16:39:10.312Z,63.41
2018-01-25T16:41:37.714Z,63.29
2018-01-25T16:44:05.115Z,63.44
2018-01-25T16:46:32.558Z,63.65
2018-01-25T16:48:59.956Z,64.04
2018-01-25T16:51:27.340Z,64.32
2018-01-25T16:53:54.756Z,65.24
2018-01-25T16:56:22.158Z,65.34
2018-01-25T16:58:49.570Z,64.99
2018-01-25T17:01:16.972Z,65.25
2018-01-25T17:03:44.451Z,65.42
2018-01-25T17:06:11.883Z,65.13
2018-01-25T17:08:39.460Z,65.55
2018-01-25T17:11:07.659Z,65.37
2018-01-25T17:13:35.061Z,65.86
2018-01-25T17:16:02.456Z,65.82
2018-01-25T17:18:29.925Z,66.90
2018-01-25T17:20:57.369Z,67.04
2018-01-25T17:23:24.838Z,67.13
2018-01-25T17:25:52.220Z,67.57
2018-01-25T17:28:19.675Z,67.79
2018-01-25T17:30:47.115Z,68.80
2018-01-25T17:33:14.554Z,68.71
2018-01-25T17:35:42.004Z,68.37
2018-01-25T17:38:09.380Z,68.30
2018-01-25T17:40:36.789Z,68.60
2018-01-25T17:43:04.188Z,68.65
2018-01-25T17:45:31.756Z,68.51
2018-01-25T17:50:32.960Z,68.12
2018-01-25T17:53:00.364Z,67.97
2018-01-25T17:55:28.367Z,68.49
2018-01-25T17:57:55.979Z,68.72
2018-01-25T18:00:23.430Z,68.93
2018-01-25T18:02:50.816Z,69.10
2018-01-25T18:05:18.280Z,69.07
2018-01-25T18:07:45.680Z,68.88
2018-01-25T18:10:13.149Z,68.54
2018-01-25T18:12:40.557Z,67.55
2018-01-25T18:15:08.025Z,67.13
2018-01-25T18:17:35.435Z,67.34
2018-01-25T18:20:02.844Z,66.98
2018-01-25T18:22:30.244Z,66.68
2018-01-25T18:24:58.287Z,66.73
2018-01-25T18:27:25.728Z,66.50
2018-01-25T18:29:53.177Z,67.37
2018-01-25T18:32:20.573Z,67.15
2018-01-25T18:34:47.999Z,67.61
2018-01-25T18:37:15.396Z,67.50
2018-01-25T18:39:42.881Z,67.14
2018-01-25T18:42:10.340Z,67.28
2018-01-25T18:44:37.737Z,66.83
2018-01-25T18:47:05.145Z,67.29
2018-01-25T18:49:32.556Z,66.80
2018-01-25T18:52:00.010Z,66.78
2018-01-25T18:54:27.666Z,66.96
2018-01-25T18:56:55.097Z,67.10
2018-01-25T18:59:22.547Z,67.76
2018-01-25T19:01:49.975Z,67.31
2018-01-25T19:04:17.436Z,68.16
2018-01-25T19:06:44.889Z,67.72
2018-01-25T19:09:12.322Z,68.23
2018-01-25T19:11:39.793Z,68.08
2018-01-25T19:14:07.231Z,67.42
2018-01-25T19:16:34.728Z,67.31
2018-01-25T19:19:02.114Z,66.86
2018-01-25T19:21:29.715Z,67.43
2018-01-25T19:23:57.100Z,67.35
2018-01-25T19:26:24.562Z,66.46
2018-01-25T19:28:52.012Z,66.86
2018-01-25T19:31:19.469Z,65.80
2018-01-25T19:33:47.011Z,66.09
2018-01-25T19:36:14.659Z,65.85
2018-01-25T19:38:42.765Z,66.10
2018-01-25T19:41:10.335Z,65.80
2018-01-25T19:43:37.784Z,65.74
2018-01-25T19:46:05.395Z,65.37
2018-01-25T19:48:32.836Z,65.63
2018-01-25T19:51:00.299Z,65.84
2018-01-25T19:53:27.805Z,66.28
2018-01-25T19:55:55.275Z,66.15
2018-01-25T19:58:22.716Z,65.86
2018-01-25T20:00:50.177Z,66.10
2018-01-25T20:03:17.644Z,66.27
2018-01-25T20:05:45.032Z,65.63
2018-01-25T20:08:12.752Z,65.92
2018-01-25T20:10:40.338Z,65.61
2018-01-25T20:13:07.748Z,65.35
2018-01-25T20:15:35.202Z,65.70
2018-01-25T20:18:02.608Z,65.40
2018-01-25T20:20:30.062Z,65.25
2018-01-25T20:22:57.576Z,65.29
2018-01-25T20:25:25.244Z,65.12
2018-01-25T20:27:53.345Z,65.72
2018-01-25T20:30:20.795Z,64.36
2018-01-25T20:32:49.109Z,64.26
2018-01-25T20:35:16.537Z,65.44
2018-01-25T20:37:44.823Z,65.07
2018-01-25T20:40:12.280Z,64.95
2018-01-25T20:42:39.741Z,64.91
2018-01-25T20:45:07.343Z,65.63
2018-01-25T20:47:35.568Z,65.97
2018-01-25T20:50:03.024Z,65.43
2018-01-25T20:52:30.551Z,65.35
2018-01-25T20:54:57.945Z,65.75
2018-01-25T20:57:25.409Z,65.52
2018-01-25T20:59:52.860Z,65.83
2018-01-25T21:02:21.423Z,65.37
2018-01-25T21:04:48.865Z,66.32
2018-01-25T21:07:16.302Z,66.33
2018-01-25T21:09:43.753Z,65.59
2018-01-25T21:12:11.185Z,65.32
2018-01-25T21:14:38.589Z,65.97
2018-01-25T21:17:05.992Z,65.65
2018-01-25T21:19:33.552Z,65.92
2018-01-25T21:22:00.945Z,66.93
2018-01-25T21:24:28.377Z,66.73
2018-01-25T21:26:55.787Z,67.05
2018-01-25T21:29:23.197Z,66.49
2018-01-25T21:31:50.595Z,66.84
2018-01-25T21:34:18.289Z,66.79
2018-01-25T21:36:45.701Z,66.76
2018-01-25T21:39:13.399Z,67.07
2018-01-25T21:41:41.543Z,66.84
2018-01-25T21:44:08.987Z,66.61
2018-01-25T21:46:36.439Z,67.46
2018-01-25T21:49:03.935Z,67.12
2018-01-25T21:51:31.731Z,67.05
2018-01-25T21:54:00.124Z,66.39
2018-01-25T21:56:27.569Z,66.78
2018-01-25T21:58:54.959Z,66.90
2018-01-25T22:02:40.151Z,67.04
2018-01-25T22:05:08.307Z,67.41
2018-01-25T22:07:35.791Z,67.07
2018-01-25T22:10:03.308Z,67.29
2018-01-25T22:12:30.756Z,66.85
2018-01-25T22:14:58.158Z,66.97
2018-01-25T22:17:25.545Z,67.42
2018-01-25T22:19:53.192Z,67.31
2018-01-25T22:22:20.641Z,67.84
2018-01-25T22:24:48.041Z,68.19
2018-01-25T22:27:15.427Z,67.17
2018-01-25T22:29:43.350Z,66.59
2018-01-25T22:32:10.792Z,65.63
2018-01-25T22:34:38.274Z,65.11
2018-01-25T22:37:05.673Z,64.82
2018-01-25T22:39:33.128Z,64.32
2018-01-25T22:42:00.687Z,64.21
2018-01-25T22:44:28.074Z,63.73
2018-01-25T22:46:55.524Z,64.17
2018-01-25T22:49:22.908Z,63.85
2018-01-25T22:51:50.371Z,64.25
2018-01-25T22:54:17.881Z,64.41
2018-01-25T22:56:45.296Z,64.59
2018-01-25T22:59:12.742Z,64.57
2018-01-25T23:01:40.148Z,65.18
2018-01-25T23:04:07.649Z,64.96
2018-01-25T23:06:35.044Z,64.78
2018-01-25T23:09:02.445Z,64.20
2018-01-25T23:11:29.901Z,64.23
2018-01-25T23:13:57.321Z,65.53
2018-01-25T23:16:24.736Z,65.91
2018-01-25T23:18:52.209Z,66.23
2018-01-25T23:21:19.652Z,65.78
2018-01-25T23:23:47.052Z,66.01
2018-01-25T23:26:14.464Z,65.83
2018-01-25T23:28:41.980Z,65.38
2018-01-25T23:31:09.406Z,66.64
2018-01-25T23:33:36.806Z,66.02
2018-01-25T23:36:04.210Z,66.54
2018-01-25T23:38:34.973Z,66.58
2018-01-25T23:41:02.389Z,66.25
2018-01-25T23:43:29.837Z,65.72
2018-01-25T23:45:57.244Z,66.09
2018-01-25T23:48:24.910Z,67.30
2018-01-25T23:50:52.332Z,67.14
2018-01-25T23:53:19.729Z,67.10
2018-01-25T23:55:47.139Z,67.24
2018-01-25T23:58:14.529Z,67.32
